sensor_id;sensor_type;location;lat;lon;timestamp;pressure;altitude;pressure_sealevel;temperature;humidity
7888;BME280;3989;48.810;9.208;2022-09-29T00:01:40;97224.44;;;6.15;100.00
7888;BME280;3989;48.810;9.208;2022-09-29T00:04:10;97242.81;;;6.38;100.00
7888;BME280;3989;48.810;9.208;2022-09-29T00:06:40;97083.75;;;5.40;100.00
7888;BME280;3989;48.810;9.208;2022-09-29T00:09:10;97203.72;;;6.19;100.00
7888;BME280;3989;48.810;9.208;2022-09-29T00:11:42;97176.94;;;6.07;100.00
7888;BME280;3989;48.810;9.208;2022-09-29T00:14:08;97273.78;;;6.59;100.00
7888;BME280;3989;48.810;9.208;2022-09-29T00:16:35;97186.16;;;6.18;100.00
7888;BME280;3989;48.810;9.208;2022-09-29T00:19:10;97255.97;;;6.53;100.00
7888;BME280;3989;48.810;9.208;2022-09-29T00:21:38;97321.03;;;6.98;100.00
7888;BME280;3989;48.810;9.208;2022-09-29T00:24:05;97222.69;;;6.44;100.00
7888;BME280;3989;48.810;9.208;2022-09-29T00:26:32;97152.44;;;6.05;100.00
7888;BME280;3989;48.810;9.208;2022-09-29T00:29:02;97075.78;;;5.55;100.00
7888;BME280;3989;48.810;9.208;2022-09-29T00:31:32;97314.25;;;7.16;100.00
7888;BME280;3989;48.810;9.208;2022-09-29T00:34:01;97142.19;;;6.17;100.00
7888;BME280;3989;48.810;9.208;2022-09-29T00:36:30;97274.91;;;6.99;100.00
7888;BME280;3989;48.810;9.208;2022-09-29T00:39:00;97318.44;;;7.32;100.00
7888;BME280;3989;48.810;9.208;2022-09-29T00:41:30;97326.19;;;7.33;100.00
7888;BME280;3989;48.810;9.208;2022-09-29T00:44:00;97315.41;;;7.35;100.00
7888;BME280;3989;48.810;9.208;2022-09-29T00:46:33;97297.81;;;7.34;100.00
7888;BME280;3989;48.810;9.208;2022-09-29T00:49:10;97158.91;;;6.45;100.00
7888;BME280;3989;48.810;9.208;2022-09-29T00:51:44;97140.53;;;6.44;100.00
7888;BME280;3989;48.810;9.208;2022-09-29T00:54:15;97147.53;;;6.51;100.00
7888;BME280;3989;48.810;9.208;2022-09-29T00:56:48;97329.97;;;7.46;100.00
7888;BME280;3989;48.810;9.208;2022-09-29T00:59:19;97317.09;;;7.43;100.00
7888;BME280;3989;48.810;9.208;2022-09-29T01:01:51;97272.41;;;7.18;100.00
7888;BME280;3989;48.810;9.208;2022-09-29T01:04:21;97314.03;;;7.46;100.00
7888;BME280;3989;48.810;9.208;2022-09-29T01:06:53;97228.84;;;7.00;100.00
7888;BME280;3989;48.810;9.208;2022-09-29T01:09:28;97305.88;;;7.47;100.00
7888;BME280;3989;48.810;9.208;2022-09-29T01:11:58;97135.50;;;6.49;100.00
7888;BME280;3989;48.810;9.208;2022-09-29T01:14:28;97267.19;;;7.31;100.00
7888;BME280;3989;48.810;9.208;2022-09-29T01:16:58;97231.97;;;7.10;100.00
7888;BME280;3989;48.810;9.208;2022-09-29T01:19:36;97242.28;;;7.26;100.00
7888;BME280;3989;48.810;9.208;2022-09-29T01:22:12;97134.94;;;6.60;100.00
7888;BME280;3989;48.810;9.208;2022-09-29T01:24:59;97292.69;;;7.60;100.00
7888;BME280;3989;48.810;9.208;2022-09-29T01:30:55;97056.81;;;6.21;100.00
7888;BME280;3989;48.810;9.208;2022-09-29T01:33:33;97142.41;;;6.77;100.00
7888;BME280;3989;48.810;9.208;2022-09-29T01:36:11;97293.53;;;7.67;100.00
7888;BME280;3989;48.810;9.208;2022-09-29T01:38:54;97290.91;;;7.74;100.00
7888;BME280;3989;48.810;9.208;2022-09-29T01:41:32;97012.69;;;6.01;100.00
7888;BME280;3989;48.810;9.208;2022-09-29T01:44:08;96984.28;;;5.88;100.00
7888;BME280;3989;48.810;9.208;2022-09-29T01:46:43;97135.31;;;6.84;100.00
7888;BME280;3989;48.810;9.208;2022-09-29T01:49:13;97193.88;;;7.24;100.00
7888;BME280;3989;48.810;9.208;2022-09-29T01:51:51;97278.22;;;7.69;100.00
7888;BME280;3989;48.810;9.208;2022-09-29T01:54:23;97301.34;;;7.82;100.00
7888;BME280;3989;48.810;9.208;2022-09-29T01:56:54;97291.34;;;7.77;100.00
7888;BME280;3989;48.810;9.208;2022-09-29T01:59:29;97291.13;;;7.79;100.00
7888;BME280;3989;48.810;9.208;2022-09-29T02:02:06;97281.94;;;7.75;100.00
7888;BME280;3989;48.810;9.208;2022-09-29T02:04:39;97195.25;;;7.13;100.00
7888;BME280;3989;48.810;9.208;2022-09-29T02:07:13;97213.50;;;7.29;100.00
7888;BME280;3989;48.810;9.208;2022-09-29T02:09:45;97320.81;;;7.89;100.00
7888;BME280;3989;48.810;9.208;2022-09-29T02:12:20;97162.31;;;7.01;100.00
7888;BME280;3989;48.810;9.208;2022-09-29T02:14:50;97083.75;;;6.59;100.00
7888;BME280;3989;48.810;9.208;2022-09-29T02:17:23;97310.63;;;7.99;100.00
7888;BME280;3989;48.810;9.208;2022-09-29T02:19:56;97261.53;;;7.75;100.00
7888;BME280;3989;48.810;9.208;2022-09-29T02:22:22;97310.25;;;8.02;100.00
7888;BME280;3989;48.810;9.208;2022-09-29T02:24:52;97280.97;;;7.89;100.00
7888;BME280;3989;48.810;9.208;2022-09-29T02:27:21;97312.94;;;8.09;100.00
7888;BME280;3989;48.810;9.208;2022-09-29T02:29:48;97145.22;;;7.04;100.00
7888;BME280;3989;48.810;9.208;2022-09-29T02:32:17;97304.94;;;8.09;100.00
7888;BME280;3989;48.810;9.208;2022-09-29T02:34:49;97253.97;;;7.79;100.00
7888;BME280;3989;48.810;9.208;2022-09-29T02:37:34;97291.47;;;8.04;100.00
7888;BME280;3989;48.810;9.208;2022-09-29T02:40:21;97314.63;;;8.23;100.00
7888;BME280;3989;48.810;9.208;2022-09-29T02:43:11;97242.50;;;7.72;100.00
7888;BME280;3989;48.810;9.208;2022-09-29T02:45:52;97198.13;;;7.53;100.00
7888;BME280;3989;48.810;9.208;2022-09-29T02:48:58;97315.44;;;8.23;100.00
7888;BME280;3989;48.810;9.208;2022-09-29T02:51:38;97266.88;;;7.95;100.00
7888;BME280;3989;48.810;9.208;2022-09-29T02:54:16;97312.78;;;8.23;100.00
7888;BME280;3989;48.810;9.208;2022-09-29T02:56:51;97302.34;;;8.22;100.00
7888;BME280;3989;48.810;9.208;2022-09-29T02:59:25;97185.63;;;7.53;100.00
7888;BME280;3989;48.810;9.208;2022-09-29T03:01:56;97207.75;;;7.67;100.00
7888;BME280;3989;48.810;9.208;2022-09-29T03:04:24;97307.47;;;8.23;100.00
7888;BME280;3989;48.810;9.208;2022-09-29T03:06:53;97244.78;;;7.81;100.00
7888;BME280;3989;48.810;9.208;2022-09-29T03:09:20;97300.31;;;8.24;100.00
7888;BME280;3989;48.810;9.208;2022-09-29T03:11:46;97254.03;;;7.99;100.00
7888;BME280;3989;48.810;9.208;2022-09-29T03:14:13;97269.22;;;8.18;100.00
7888;BME280;3989;48.810;9.208;2022-09-29T03:16:40;97278.44;;;8.22;100.00
7888;BME280;3989;48.810;9.208;2022-09-29T03:19:07;97248.31;;;8.02;100.00
7888;BME280;3989;48.810;9.208;2022-09-29T03:21:33;97274.75;;;8.16;100.00
7888;BME280;3989;48.810;9.208;2022-09-29T03:24:02;97269.00;;;8.13;100.00
7888;BME280;3989;48.810;9.208;2022-09-29T03:26:29;97284.53;;;8.16;100.00
7888;BME280;3989;48.810;9.208;2022-09-29T03:28:55;97274.28;;;8.06;100.00
7888;BME280;3989;48.810;9.208;2022-09-29T03:31:22;97160.47;;;7.36;100.00
7888;BME280;3989;48.810;9.208;2022-09-29T03:33:48;97212.22;;;7.60;100.00
7888;BME280;3989;48.810;9.208;2022-09-29T03:36:18;97161.81;;;7.19;100.00
7888;BME280;3989;48.810;9.208;2022-09-29T03:38:47;97256.41;;;7.74;100.00
7888;BME280;3989;48.810;9.208;2022-09-29T03:41:15;97270.09;;;7.77;100.00
7888;BME280;3989;48.810;9.208;2022-09-29T03:43:43;97241.91;;;7.35;100.00
7888;BME280;3989;48.810;9.208;2022-09-29T03:46:11;97261.00;;;7.52;100.00
7888;BME280;3989;48.810;9.208;2022-09-29T03:48:37;97165.41;;;6.70;100.00
7888;BME280;3989;48.810;9.208;2022-09-29T03:51:11;97131.03;;;6.49;100.00
7888;BME280;3989;48.810;9.208;2022-09-29T03:53:38;97163.59;;;6.50;100.00
7888;BME280;3989;48.810;9.208;2022-09-29T03:56:05;97258.84;;;7.00;100.00
7888;BME280;3989;48.810;9.208;2022-09-29T03:58:33;97134.16;;;6.10;100.00
7888;BME280;3989;48.810;9.208;2022-09-29T04:01:00;97010.38;;;5.27;100.00
7888;BME280;3989;48.810;9.208;2022-09-29T04:03:28;97100.34;;;5.70;100.00
7888;BME280;3989;48.810;9.208;2022-09-29T04:05:55;97131.91;;;5.86;100.00
7888;BME280;3989;48.810;9.208;2022-09-29T04:08:22;97263.75;;;6.54;100.00
7888;BME280;3989;48.810;9.208;2022-09-29T04:10:48;97216.94;;;6.19;100.00
7888;BME280;3989;48.810;9.208;2022-09-29T04:13:18;97251.06;;;6.50;100.00
7888;BME280;3989;48.810;9.208;2022-09-29T04:15:48;97218.84;;;6.25;100.00
7888;BME280;3989;48.810;9.208;2022-09-29T04:18:15;97138.59;;;5.67;100.00
7888;BME280;3989;48.810;9.208;2022-09-29T04:20:42;97224.53;;;6.22;100.00
7888;BME280;3989;48.810;9.208;2022-09-29T04:23:08;97250.69;;;6.31;100.00
7888;BME280;3989;48.810;9.208;2022-09-29T04:25:35;97251.69;;;6.30;100.00
7888;BME280;3989;48.810;9.208;2022-09-29T04:28:02;97237.69;;;6.15;100.00
7888;BME280;3989;48.810;9.208;2022-09-29T04:30:28;97265.06;;;6.22;100.00
7888;BME280;3989;48.810;9.208;2022-09-29T04:32:56;97249.50;;;6.13;100.00
7888;BME280;3989;48.810;9.208;2022-09-29T04:35:23;97267.13;;;6.27;100.00
7888;BME280;3989;48.810;9.208;2022-09-29T04:37:55;97270.75;;;6.19;100.00
7888;BME280;3989;48.810;9.208;2022-09-29T04:40:23;97027.22;;;4.69;100.00
7888;BME280;3989;48.810;9.208;2022-09-29T04:42:55;97186.09;;;5.54;100.00
7888;BME280;3989;48.810;9.208;2022-09-29T04:45:21;96997.56;;;4.38;100.00
7888;BME280;3989;48.810;9.208;2022-09-29T04:48:03;97167.25;;;5.28;100.00
7888;BME280;3989;48.810;9.208;2022-09-29T04:50:30;97265.19;;;5.64;100.00
7888;BME280;3989;48.810;9.208;2022-09-29T04:52:58;97290.81;;;5.78;100.00
7888;BME280;3989;48.810;9.208;2022-09-29T04:55:28;97043.47;;;4.22;100.00
7888;BME280;3989;48.810;9.208;2022-09-29T04:57:58;97240.00;;;5.68;100.00
7888;BME280;3989;48.810;9.208;2022-09-29T05:00:24;97297.25;;;6.05;100.00
7888;BME280;3989;48.810;9.208;2022-09-29T05:02:52;97291.50;;;6.16;100.00
7888;BME280;3989;48.810;9.208;2022-09-29T05:05:20;97302.25;;;6.14;100.00
7888;BME280;3989;48.810;9.208;2022-09-29T05:07:46;97287.41;;;6.13;100.00
7888;BME280;3989;48.810;9.208;2022-09-29T05:10:13;97294.13;;;6.16;100.00
7888;BME280;3989;48.810;9.208;2022-09-29T05:12:40;97176.63;;;5.45;100.00
7888;BME280;3989;48.810;9.208;2022-09-29T05:15:10;97298.09;;;6.05;100.00
7888;BME280;3989;48.810;9.208;2022-09-29T05:17:40;97309.88;;;6.03;100.00
7888;BME280;3989;48.810;9.208;2022-09-29T05:20:07;97168.34;;;5.19;100.00
7888;BME280;3989;48.810;9.208;2022-09-29T05:22:36;97315.88;;;6.11;100.00
7888;BME280;3989;48.810;9.208;2022-09-29T05:25:03;97321.63;;;6.15;100.00
7888;BME280;3989;48.810;9.208;2022-09-29T05:27:29;97303.00;;;6.08;100.00
7888;BME280;3989;48.810;9.208;2022-09-29T05:29:56;97215.34;;;5.67;100.00
7888;BME280;3989;48.810;9.208;2022-09-29T05:32:23;97085.16;;;4.86;100.00
7888;BME280;3989;48.810;9.208;2022-09-29T05:34:52;97236.22;;;5.77;100.00
7888;BME280;3989;48.810;9.208;2022-09-29T05:37:19;97320.25;;;6.40;100.00
7888;BME280;3989;48.810;9.208;2022-09-29T05:39:50;97223.56;;;5.87;100.00
7888;BME280;3989;48.810;9.208;2022-09-29T05:42:25;97214.78;;;5.87;100.00
7888;BME280;3989;48.810;9.208;2022-09-29T05:44:52;97228.16;;;6.00;100.00
7888;BME280;3989;48.810;9.208;2022-09-29T05:47:19;97238.06;;;6.12;100.00
7888;BME280;3989;48.810;9.208;2022-09-29T05:49:46;97315.88;;;6.68;100.00
7888;BME280;3989;48.810;9.208;2022-09-29T05:52:13;97275.94;;;6.49;100.00
7888;BME280;3989;48.810;9.208;2022-09-29T05:54:40;97191.09;;;6.00;100.00
7888;BME280;3989;48.810;9.208;2022-09-29T05:57:08;97240.72;;;6.33;100.00
7888;BME280;3989;48.810;9.208;2022-09-29T05:59:35;97263.31;;;6.51;100.00
7888;BME280;3989;48.810;9.208;2022-09-29T06:02:02;97318.44;;;6.83;100.00
7888;BME280;3989;48.810;9.208;2022-09-29T06:04:29;97322.59;;;6.92;100.00
7888;BME280;3989;48.810;9.208;2022-09-29T06:06:56;97177.34;;;6.11;100.00
7888;BME280;3989;48.810;9.208;2022-09-29T06:09:22;97197.72;;;6.31;100.00
7888;BME280;3989;48.810;9.208;2022-09-29T06:11:49;97272.94;;;6.79;100.00
7888;BME280;3989;48.810;9.208;2022-09-29T06:14:18;97254.59;;;6.78;100.00
7888;BME280;3989;48.810;9.208;2022-09-29T06:16:45;97280.66;;;7.02;100.00
7888;BME280;3989;48.810;9.208;2022-09-29T06:19:13;97274.19;;;7.11;100.00
7888;BME280;3989;48.810;9.208;2022-09-29T06:21:40;97160.56;;;6.46;100.00
7888;BME280;3989;48.810;9.208;2022-09-29T06:24:07;97317.13;;;7.49;100.00
7888;BME280;3989;48.810;9.208;2022-09-29T06:26:33;97284.13;;;7.30;100.00
7888;BME280;3989;48.810;9.208;2022-09-29T06:29:01;97303.03;;;7.49;100.00
7888;BME280;3989;48.810;9.208;2022-09-29T06:31:32;97350.63;;;7.84;100.00
7888;BME280;3989;48.810;9.208;2022-09-29T06:34:00;97319.22;;;7.95;100.00
7888;BME280;3989;48.810;9.208;2022-09-29T06:36:29;97291.16;;;7.85;100.00
7888;BME280;3989;48.810;9.208;2022-09-29T06:39:14;97340.19;;;8.24;100.00
7888;BME280;3989;48.810;9.208;2022-09-29T06:41:42;97352.41;;;8.18;100.00
7888;BME280;3989;48.810;9.208;2022-09-29T06:44:13;97272.91;;;7.69;100.00
7888;BME280;3989;48.810;9.208;2022-09-29T06:46:41;97350.47;;;8.33;100.00
7888;BME280;3989;48.810;9.208;2022-09-29T06:49:11;97247.56;;;7.60;100.00
7888;BME280;3989;48.810;9.208;2022-09-29T06:51:39;97348.44;;;8.42;100.00
7888;BME280;3989;48.810;9.208;2022-09-29T06:54:06;97214.72;;;7.68;100.00
7888;BME280;3989;48.810;9.208;2022-09-29T06:56:33;97310.22;;;8.36;100.00
7888;BME280;3989;48.810;9.208;2022-09-29T06:59:00;97355.47;;;8.76;100.00
7888;BME280;3989;48.810;9.208;2022-09-29T07:01:26;97355.09;;;8.85;100.00
7888;BME280;3989;48.810;9.208;2022-09-29T07:03:55;97332.59;;;8.88;100.00
7888;BME280;3989;48.810;9.208;2022-09-29T07:06:21;97332.81;;;9.00;100.00
7888;BME280;3989;48.810;9.208;2022-09-29T07:08:52;97347.13;;;9.18;100.00
7888;BME280;3989;48.810;9.208;2022-09-29T07:11:19;97330.75;;;9.15;100.00
7888;BME280;3989;48.810;9.208;2022-09-29T07:13:48;97326.47;;;9.27;100.00
7888;BME280;3989;48.810;9.208;2022-09-29T07:16:15;97331.38;;;9.43;100.00
7888;BME280;3989;48.810;9.208;2022-09-29T07:18:42;97341.59;;;9.66;100.00
7888;BME280;3989;48.810;9.208;2022-09-29T07:21:12;97343.38;;;9.85;100.00
7888;BME280;3989;48.810;9.208;2022-09-29T07:23:42;97345.00;;;9.86;100.00
7888;BME280;3989;48.810;9.208;2022-09-29T07:26:09;97346.63;;;10.00;100.00
7888;BME280;3989;48.810;9.208;2022-09-29T07:28:36;97203.63;;;9.17;100.00
7888;BME280;3989;48.810;9.208;2022-09-29T07:31:05;97337.59;;;10.01;100.00
7888;BME280;3989;48.810;9.208;2022-09-29T07:33:32;97352.75;;;10.20;100.00
7888;BME280;3989;48.810;9.208;2022-09-29T07:35:59;97363.38;;;10.27;100.00
7888;BME280;3989;48.810;9.208;2022-09-29T07:38:29;97269.81;;;9.84;100.00
7888;BME280;3989;48.810;9.208;2022-09-29T07:40:58;97306.19;;;10.16;100.00
7888;BME280;3989;48.810;9.208;2022-09-29T07:43:25;97243.59;;;9.81;100.00
7888;BME280;3989;48.810;9.208;2022-09-29T07:45:52;97323.78;;;10.30;100.00
7888;BME280;3989;48.810;9.208;2022-09-29T07:48:19;97288.13;;;10.18;100.00
7888;BME280;3989;48.810;9.208;2022-09-29T07:50:45;97270.06;;;10.27;100.00
7888;BME280;3989;48.810;9.208;2022-09-29T07:53:12;97259.13;;;10.35;100.00
7888;BME280;3989;48.810;9.208;2022-09-29T07:55:40;97353.47;;;11.10;100.00
7888;BME280;3989;48.810;9.208;2022-09-29T07:58:07;97337.69;;;11.08;100.00
7888;BME280;3989;48.810;9.208;2022-09-29T08:00:34;97283.81;;;10.86;100.00
7888;BME280;3989;48.810;9.208;2022-09-29T08:03:01;97374.09;;;11.52;100.00
7888;BME280;3989;48.810;9.208;2022-09-29T08:05:28;97370.09;;;11.61;100.00
7888;BME280;3989;48.810;9.208;2022-09-29T08:07:57;97377.53;;;11.59;100.00
7888;BME280;3989;48.810;9.208;2022-09-29T08:10:25;97377.66;;;11.71;100.00
7888;BME280;3989;48.810;9.208;2022-09-29T08:12:53;97318.09;;;11.39;100.00
7888;BME280;3989;48.810;9.208;2022-09-29T08:15:20;97362.31;;;11.84;100.00
7888;BME280;3989;48.810;9.208;2022-09-29T08:17:47;97280.34;;;11.53;100.00
7888;BME280;3989;48.810;9.208;2022-09-29T08:20:14;97372.59;;;12.24;100.00
7888;BME280;3989;48.810;9.208;2022-09-29T08:22:40;97351.19;;;12.24;100.00
7888;BME280;3989;48.810;9.208;2022-09-29T08:25:07;97367.91;;;12.37;100.00
7888;BME280;3989;48.810;9.208;2022-09-29T08:27:34;97354.94;;;12.34;100.00
7888;BME280;3989;48.810;9.208;2022-09-29T08:30:02;97375.25;;;12.60;100.00
7888;BME280;3989;48.810;9.208;2022-09-29T08:32:29;97379.16;;;12.76;100.00
7888;BME280;3989;48.810;9.208;2022-09-29T08:34:56;97384.09;;;12.90;100.00
7888;BME280;3989;48.810;9.208;2022-09-29T08:37:23;97396.25;;;13.04;100.00
7888;BME280;3989;48.810;9.208;2022-09-29T08:39:49;97391.25;;;13.08;100.00
7888;BME280;3989;48.810;9.208;2022-09-29T08:42:21;97389.56;;;13.13;100.00
7888;BME280;3989;48.810;9.208;2022-09-29T08:44:53;97395.75;;;13.26;100.00
7888;BME280;3989;48.810;9.208;2022-09-29T08:47:26;97373.41;;;13.32;100.00
7888;BME280;3989;48.810;9.208;2022-09-29T08:49:56;97388.56;;;13.38;100.00
7888;BME280;3989;48.810;9.208;2022-09-29T08:52:25;97395.09;;;13.42;100.00
7888;BME280;3989;48.810;9.208;2022-09-29T08:54:58;97398.47;;;13.37;100.00
7888;BME280;3989;48.810;9.208;2022-09-29T08:57:28;97415.75;;;13.11;100.00
7888;BME280;3989;48.810;9.208;2022-09-29T08:59:57;97328.66;;;12.31;100.00
7888;BME280;3989;48.810;9.208;2022-09-29T09:02:41;97406.03;;;12.81;100.00
7888;BME280;3989;48.810;9.208;2022-09-29T09:05:23;97410.22;;;13.06;100.00
7888;BME280;3989;48.810;9.208;2022-09-29T09:07:57;97389.56;;;13.13;100.00
7888;BME280;3989;48.810;9.208;2022-09-29T09:10:34;97361.66;;;13.03;100.00
7888;BME280;3989;48.810;9.208;2022-09-29T09:13:09;97373.44;;;13.02;100.00
7888;BME280;3989;48.810;9.208;2022-09-29T09:16:06;97401.47;;;13.29;100.00
7888;BME280;3989;48.810;9.208;2022-09-29T09:21:37;97411.31;;;13.47;100.00
7888;BME280;3989;48.810;9.208;2022-09-29T09:24:14;97415.97;;;13.51;100.00
7888;BME280;3989;48.810;9.208;2022-09-29T09:26:43;97420.53;;;13.62;100.00
7888;BME280;3989;48.810;9.208;2022-09-29T09:29:16;97426.03;;;13.79;100.00
7888;BME280;3989;48.810;9.208;2022-09-29T09:31:49;97415.66;;;13.94;100.00
7888;BME280;3989;48.810;9.208;2022-09-29T09:34:21;97422.78;;;14.12;100.00
7888;BME280;3989;48.810;9.208;2022-09-29T09:36:53;97368.09;;;13.90;100.00
7888;BME280;3989;48.810;9.208;2022-09-29T09:39:26;97420.44;;;14.39;100.00
7888;BME280;3989;48.810;9.208;2022-09-29T09:41:58;97421.50;;;14.49;100.00
7888;BME280;3989;48.810;9.208;2022-09-29T09:44:28;97406.09;;;14.45;100.00
7888;BME280;3989;48.810;9.208;2022-09-29T09:47:02;97429.16;;;14.57;100.00
7888;BME280;3989;48.810;9.208;2022-09-29T09:49:38;97430.72;;;14.53;100.00
7888;BME280;3989;48.810;9.208;2022-09-29T09:52:10;97421.59;;;14.54;100.00
7888;BME280;3989;48.810;9.208;2022-09-29T09:54:41;97410.63;;;14.44;100.00
7888;BME280;3989;48.810;9.208;2022-09-29T10:00:05;97418.28;;;14.64;100.00
7888;BME280;3989;48.810;9.208;2022-09-29T10:02:34;97421.66;;;14.83;100.00
7888;BME280;3989;48.810;9.208;2022-09-29T10:05:04;97416.75;;;15.08;100.00
7888;BME280;3989;48.810;9.208;2022-09-29T10:07:39;97412.81;;;15.27;100.00
7888;BME280;3989;48.810;9.208;2022-09-29T10:10:15;97422.94;;;15.37;100.00
7888;BME280;3989;48.810;9.208;2022-09-29T10:12:42;97421.44;;;15.29;100.00
7888;BME280;3989;48.810;9.208;2022-09-29T10:15:16;97426.53;;;15.42;100.00
7888;BME280;3989;48.810;9.208;2022-09-29T10:17:45;97431.22;;;15.63;100.00
7888;BME280;3989;48.810;9.208;2022-09-29T10:20:30;97427.97;;;15.78;100.00
7888;BME280;3989;48.810;9.208;2022-09-29T10:23:17;97422.84;;;15.77;97.44
7888;BME280;3989;48.810;9.208;2022-09-29T10:25:50;97377.19;;;15.65;100.00
7888;BME280;3989;48.810;9.208;2022-09-29T10:28:18;97391.53;;;15.87;97.81
7888;BME280;3989;48.810;9.208;2022-09-29T10:30:45;97419.72;;;16.18;94.69
7888;BME280;3989;48.810;9.208;2022-09-29T10:33:14;97400.47;;;16.09;90.93
7888;BME280;3989;48.810;9.208;2022-09-29T10:35:44;97427.19;;;16.33;86.52
7888;BME280;3989;48.810;9.208;2022-09-29T10:38:16;97424.72;;;16.48;84.35
7888;BME280;3989;48.810;9.208;2022-09-29T10:40:53;97426.31;;;16.65;82.19
7888;BME280;3989;48.810;9.208;2022-09-29T10:43:23;97429.31;;;16.69;81.40
7888;BME280;3989;48.810;9.208;2022-09-29T10:45:51;97417.03;;;16.78;81.36
7888;BME280;3989;48.810;9.208;2022-09-29T10:48:23;97425.41;;;17.25;81.37
7888;BME280;3989;48.810;9.208;2022-09-29T10:50:53;97425.59;;;17.45;73.87
7888;BME280;3989;48.810;9.208;2022-09-29T10:53:27;97432.53;;;17.63;73.50
7888;BME280;3989;48.810;9.208;2022-09-29T10:55:58;97428.47;;;17.60;61.28
7888;BME280;3989;48.810;9.208;2022-09-29T10:58:28;97429.31;;;16.91;67.17
7888;BME280;3989;48.810;9.208;2022-09-29T11:01:04;97426.69;;;16.96;72.17
7888;BME280;3989;48.810;9.208;2022-09-29T11:03:33;97418.84;;;16.94;70.98
7888;BME280;3989;48.810;9.208;2022-09-29T11:06:07;97424.50;;;17.19;74.59
7888;BME280;3989;48.810;9.208;2022-09-29T11:08:58;97421.41;;;17.32;70.95
7888;BME280;3989;48.810;9.208;2022-09-29T11:11:28;97413.13;;;17.39;69.63
7888;BME280;3989;48.810;9.208;2022-09-29T11:13:56;97416.56;;;17.56;67.86
7888;BME280;3989;48.810;9.208;2022-09-29T11:16:27;97420.72;;;17.69;68.65
7888;BME280;3989;48.810;9.208;2022-09-29T11:18:58;97422.09;;;17.71;65.54
7888;BME280;3989;48.810;9.208;2022-09-29T11:21:57;97423.41;;;17.69;63.79
7888;BME280;3989;48.810;9.208;2022-09-29T11:24:50;97427.22;;;17.46;62.79
7888;BME280;3989;48.810;9.208;2022-09-29T11:27:30;97427.16;;;17.63;61.77
7888;BME280;3989;48.810;9.208;2022-09-29T11:30:02;97422.69;;;17.78;58.95
7888;BME280;3989;48.810;9.208;2022-09-29T11:32:38;97419.03;;;17.95;57.98
7888;BME280;3989;48.810;9.208;2022-09-29T11:35:17;97425.41;;;18.15;59.36
7888;BME280;3989;48.810;9.208;2022-09-29T11:38:12;97424.16;;;18.33;55.71
7888;BME280;3989;48.810;9.208;2022-09-29T11:40:53;97416.81;;;18.23;57.45
7888;BME280;3989;48.810;9.208;2022-09-29T11:43:32;97426.50;;;18.19;54.94
7888;BME280;3989;48.810;9.208;2022-09-29T11:46:13;97431.94;;;17.88;56.89
7888;BME280;3989;48.810;9.208;2022-09-29T11:49:07;97415.88;;;17.71;58.19
7888;BME280;3989;48.810;9.208;2022-09-29T11:51:54;97423.72;;;17.72;57.57
7888;BME280;3989;48.810;9.208;2022-09-29T11:54:41;97428.78;;;17.64;56.60
7888;BME280;3989;48.810;9.208;2022-09-29T11:57:17;97398.81;;;17.39;57.35
7888;BME280;3989;48.810;9.208;2022-09-29T11:59:57;97426.78;;;17.54;57.80
7888;BME280;3989;48.810;9.208;2022-09-29T12:05:38;97421.41;;;17.32;57.60
7888;BME280;3989;48.810;9.208;2022-09-29T12:08:14;97434.47;;;17.19;56.93
7888;BME280;3989;48.810;9.208;2022-09-29T12:10:52;97417.03;;;17.00;58.64
7888;BME280;3989;48.810;9.208;2022-09-29T12:13:29;97427.78;;;17.00;57.05
7888;BME280;3989;48.810;9.208;2022-09-29T12:16:01;97419.59;;;17.11;59.23
7888;BME280;3989;48.810;9.208;2022-09-29T12:18:34;97406.31;;;17.05;55.24
7888;BME280;3989;48.810;9.208;2022-09-29T12:21:06;97420.91;;;17.36;54.95
7888;BME280;3989;48.810;9.208;2022-09-29T12:23:33;97419.94;;;17.47;55.94
7888;BME280;3989;48.810;9.208;2022-09-29T12:26:07;97416.44;;;17.46;54.66
7888;BME280;3989;48.810;9.208;2022-09-29T12:28:39;97414.06;;;17.55;53.76
7888;BME280;3989;48.810;9.208;2022-09-29T12:31:11;97401.00;;;17.42;53.55
7888;BME280;3989;48.810;9.208;2022-09-29T12:33:42;97412.31;;;17.39;55.50
7888;BME280;3989;48.810;9.208;2022-09-29T12:36:25;97413.44;;;17.43;54.92
7888;BME280;3989;48.810;9.208;2022-09-29T12:39:23;97409.00;;;17.58;54.68
7888;BME280;3989;48.810;9.208;2022-09-29T12:41:57;97405.81;;;17.61;52.52
7888;BME280;3989;48.810;9.208;2022-09-29T12:44:32;97385.97;;;17.19;52.24
7888;BME280;3989;48.810;9.208;2022-09-29T12:47:11;97412.91;;;17.19;53.81
7888;BME280;3989;48.810;9.208;2022-09-29T12:49:49;97365.91;;;17.10;53.84
7888;BME280;3989;48.810;9.208;2022-09-29T12:52:25;97420.13;;;17.62;52.71
7888;BME280;3989;48.810;9.208;2022-09-29T12:54:57;97418.34;;;17.77;52.04
7888;BME280;3989;48.810;9.208;2022-09-29T12:57:32;97418.78;;;17.64;51.99
7888;BME280;3989;48.810;9.208;2022-09-29T13:00:03;97411.66;;;17.53;52.52
7888;BME280;3989;48.810;9.208;2022-09-29T13:02:47;97423.97;;;17.44;53.27
7888;BME280;3989;48.810;9.208;2022-09-29T13:05:28;97411.31;;;17.18;51.72
7888;BME280;3989;48.810;9.208;2022-09-29T13:10:58;97399.25;;;16.99;53.29
7888;BME280;3989;48.810;9.208;2022-09-29T13:13:54;97401.44;;;16.58;53.04
7888;BME280;3989;48.810;9.208;2022-09-29T13:16:49;97426.19;;;16.39;55.51
7888;BME280;3989;48.810;9.208;2022-09-29T13:19:41;97425.59;;;16.15;57.78
7888;BME280;3989;48.810;9.208;2022-09-29T13:22:32;97426.75;;;16.02;59.40
7888;BME280;3989;48.810;9.208;2022-09-29T13:25:16;97430.31;;;16.08;60.16
7888;BME280;3989;48.810;9.208;2022-09-29T13:27:47;97431.97;;;16.09;59.18
7888;BME280;3989;48.810;9.208;2022-09-29T13:30:18;97430.16;;;15.98;59.36
7888;BME280;3989;48.810;9.208;2022-09-29T13:32:47;97426.44;;;15.82;59.95
7888;BME280;3989;48.810;9.208;2022-09-29T13:35:17;97422.09;;;15.64;60.60
7888;BME280;3989;48.810;9.208;2022-09-29T13:37:48;97429.69;;;15.51;62.11
7888;BME280;3989;48.810;9.208;2022-09-29T13:40:19;97419.38;;;15.19;61.51
7888;BME280;3989;48.810;9.208;2022-09-29T13:42:47;97431.34;;;15.12;64.68
7888;BME280;3989;48.810;9.208;2022-09-29T13:45:36;97424.56;;;15.09;67.14
7888;BME280;3989;48.810;9.208;2022-09-29T13:51:50;97443.63;;;15.08;65.23
7888;BME280;3989;48.810;9.208;2022-09-29T13:54:26;97445.50;;;15.07;66.61
7888;BME280;3989;48.810;9.208;2022-09-29T13:57:17;97430.69;;;14.93;66.59
7888;BME280;3989;48.810;9.208;2022-09-29T14:02:43;97445.09;;;14.87;66.55
7888;BME280;3989;48.810;9.208;2022-09-29T14:05:44;97444.19;;;14.82;68.05
7888;BME280;3989;48.810;9.208;2022-09-29T14:08:17;97449.00;;;14.68;69.78